createdAt,value
2022-07-29T00:00:27.133Z,59.20
2022-07-29T00:01:27.121Z,59.80
2022-07-29T00:02:27.192Z,59.50
2022-07-29T00:03:27.081Z,60.00
2022-07-29T00:04:27.222Z,60.51
2022-07-29T00:05:27.065Z,61.11
2022-07-29T00:06:27.064Z,61.61
2022-07-29T00:07:27.022Z,61.71
2022-07-29T00:08:27.023Z,61.91
2022-07-29T00:09:27.002Z,62.32
2022-07-29T00:10:26.984Z,62.52
2022-07-29T00:11:27.003Z,62.75
2022-07-29T00:12:27.123Z,62.75
2022-07-29T00:13:32.500Z,62.75
2022-07-29T00:14:27.942Z,62.75
2022-07-29T00:15:26.914Z,62.75
2022-07-29T00:16:26.951Z,62.85
2022-07-29T00:17:26.915Z,62.24
2022-07-29T00:18:26.886Z,61.74
2022-07-29T00:19:26.864Z,60.84
2022-07-29T00:20:26.865Z,59.96
2022-07-29T00:21:26.866Z,59.76
2022-07-29T00:22:26.866Z,59.83
2022-07-29T00:23:26.816Z,61.14
2022-07-29T00:24:26.805Z,61.54
2022-07-29T00:25:26.785Z,61.34
2022-07-29T00:26:26.766Z,60.24
2022-07-29T00:27:26.776Z,60.13
2022-07-29T00:28:26.757Z,59.83
2022-07-29T00:29:34.851Z,60.03
2022-07-29T00:30:27.724Z,59.63
2022-07-29T00:31:26.761Z,58.12
2022-07-29T00:32:26.715Z,57.92
2022-07-29T00:33:26.675Z,59.23
2022-07-29T00:34:26.669Z,58.12
2022-07-29T00:35:26.647Z,57.82
2022-07-29T00:36:26.656Z,57.72
2022-07-29T00:37:26.633Z,57.62
2022-07-29T00:38:26.614Z,57.70
2022-07-29T00:39:26.599Z,57.19
2022-07-29T00:40:26.587Z,57.19
2022-07-29T00:41:26.606Z,57.09
2022-07-29T00:42:26.571Z,57.19
2022-07-29T00:43:26.556Z,55.79
2022-07-29T00:44:26.539Z,56.19
2022-07-29T00:45:26.527Z,56.49
2022-07-29T00:46:26.604Z,56.38
2022-07-29T00:47:26.491Z,55.58
2022-07-29T00:48:26.492Z,54.38
2022-07-29T00:49:26.503Z,53.77
2022-07-29T00:50:26.458Z,54.08
2022-07-29T00:51:26.463Z,54.05
2022-07-29T00:52:26.431Z,54.55
2022-07-29T00:53:26.422Z,54.55
2022-07-29T00:54:26.400Z,53.95
2022-07-29T00:55:26.388Z,54.25
2022-07-29T00:56:26.389Z,52.64
2022-07-29T00:57:26.358Z,52.64
2022-07-29T00:58:26.338Z,52.24
2022-07-29T00:59:26.326Z,52.44
2022-07-29T01:00:27.389Z,51.72
2022-07-29T01:01:26.414Z,52.01
2022-07-29T01:02:26.397Z,52.22
2022-07-29T01:03:26.278Z,52.42
2022-07-29T01:04:26.271Z,52.62
2022-07-29T01:05:48.157Z,52.51
2022-07-29T01:06:27.261Z,52.51
2022-07-29T01:07:26.220Z,52.12
2022-07-29T01:08:26.233Z,52.32
2022-07-29T01:09:46.416Z,52.22
2022-07-29T01:10:27.193Z,52.62
2022-07-29T01:11:26.222Z,52.12
2022-07-29T01:12:26.161Z,52.51
2022-07-29T01:13:26.131Z,52.51
2022-07-29T01:14:26.132Z,52.51
2022-07-29T01:15:26.122Z,52.62
2022-07-29T01:16:26.218Z,53.12
2022-07-29T01:17:26.111Z,53.32
2022-07-29T01:18:26.085Z,53.62
2022-07-29T01:19:26.082Z,53.92
2022-07-29T01:20:31.626Z,54.43
2022-07-29T01:21:27.064Z,55.13
2022-07-29T01:22:26.022Z,55.43
2022-07-29T01:23:26.044Z,55.83
2022-07-29T01:24:26.013Z,56.03
2022-07-29T01:25:25.991Z,56.34
2022-07-29T01:26:26.004Z,57.34
2022-07-29T01:27:25.962Z,57.14
2022-07-29T01:28:25.952Z,57.67
2022-07-29T01:29:25.933Z,58.17
2022-07-29T01:30:25.935Z,58.57
2022-07-29T01:31:26.494Z,57.97
2022-07-29T01:32:29.003Z,58.77
2022-07-29T01:33:25.875Z,58.87
2022-07-29T01:34:25.874Z,59.17
2022-07-29T01:35:25.873Z,60.68
2022-07-29T01:36:25.834Z,59.50
2022-07-29T01:37:25.852Z,59.30
2022-07-29T01:38:25.834Z,60.31
2022-07-29T01:39:25.794Z,61.01
2022-07-29T01:40:25.802Z,58.70
2022-07-29T01:41:25.784Z,59.10
2022-07-29T01:42:25.807Z,60.71
2022-07-29T01:43:25.764Z,61.51
2022-07-29T01:44:25.745Z,61.41
2022-07-29T01:45:25.726Z,60.71
2022-07-29T01:46:25.844Z,60.81
2022-07-29T01:47:25.702Z,60.84
2022-07-29T01:48:25.687Z,61.44
2022-07-29T01:49:25.733Z,61.14
2022-07-29T01:50:25.656Z,61.65
2022-07-29T01:51:25.658Z,61.85
2022-07-29T01:52:25.630Z,60.84
2022-07-29T01:53:25.618Z,60.84
2022-07-29T01:54:25.598Z,60.64
2022-07-29T01:55:25.577Z,61.04
2022-07-29T01:56:25.577Z,60.94
2022-07-29T01:57:25.578Z,61.34
2022-07-29T01:58:25.569Z,60.97
2022-07-29T01:59:25.538Z,61.07
2022-07-29T02:00:25.543Z,61.77
2022-07-29T02:01:25.550Z,61.77
2022-07-29T02:02:25.508Z,61.67
2022-07-29T02:03:25.484Z,61.37
2022-07-29T02:04:29.758Z,61.50
2022-07-29T02:05:25.528Z,61.40
2022-07-29T02:06:25.440Z,61.50
2022-07-29T02:07:25.439Z,61.70
2022-07-29T02:08:25.410Z,62.10
2022-07-29T02:09:25.407Z,61.60
2022-07-29T02:10:25.775Z,61.70
2022-07-29T02:11:25.381Z,61.70
2022-07-29T02:12:25.381Z,61.80
2022-07-29T02:13:25.339Z,61.90
2022-07-29T02:14:25.331Z,61.40
2022-07-29T02:15:25.336Z,61.30
2022-07-29T02:16:25.388Z,61.50
2022-07-29T02:17:25.310Z,61.80
2022-07-29T02:18:25.270Z,61.90
2022-07-29T02:19:25.271Z,61.80
2022-07-29T02:20:25.241Z,62.10
2022-07-29T02:21:25.230Z,62.21
2022-07-29T02:22:25.230Z,62.30
2022-07-29T02:23:25.201Z,62.51
2022-07-29T02:24:25.190Z,62.41
2022-07-29T02:25:25.180Z,62.30
2022-07-29T02:26:26.162Z,62.30
2022-07-29T02:27:25.171Z,62.21
2022-07-29T02:28:25.131Z,62.41
2022-07-29T02:29:25.121Z,62.51
2022-07-29T02:30:25.111Z,62.64
2022-07-29T02:31:25.164Z,62.84
2022-07-29T02:32:25.101Z,62.94
2022-07-29T02:33:25.076Z,63.14
2022-07-29T02:34:25.062Z,63.14
2022-07-29T02:35:25.041Z,63.14
2022-07-29T02:36:25.031Z,63.14
2022-07-29T02:37:25.078Z,63.24
2022-07-29T02:38:25.005Z,63.37
2022-07-29T02:39:24.992Z,63.67
2022-07-29T02:40:24.973Z,63.98
2022-07-29T02:41:24.962Z,64.38
2022-07-29T02:42:24.962Z,64.78
2022-07-29T02:43:24.944Z,64.98
2022-07-29T02:44:24.931Z,65.29
2022-07-29T02:45:24.912Z,65.59
2022-07-29T02:46:28.422Z,65.79
2022-07-29T02:47:24.905Z,65.79
2022-07-29T02:48:24.863Z,65.89
2022-07-29T02:49:24.947Z,66.13
2022-07-29T02:50:24.835Z,66.33
2022-07-29T02:51:42.613Z,66.63
2022-07-29T02:52:25.823Z,66.73
2022-07-29T02:53:24.808Z,66.63
2022-07-29T02:54:24.774Z,66.73
2022-07-29T02:55:24.772Z,66.83
2022-07-29T02:56:24.764Z,66.93
2022-07-29T02:57:24.764Z,67.07
2022-07-29T02:58:24.732Z,67.16
2022-07-29T02:59:24.724Z,67.27
2022-07-29T03:00:24.734Z,67.36
2022-07-29T03:01:24.716Z,67.10
2022-07-29T03:02:24.693Z,66.89
2022-07-29T03:03:24.673Z,66.79
2022-07-29T03:04:24.712Z,66.69
2022-07-29T03:05:24.657Z,66.59
2022-07-29T03:06:28.251Z,66.29
2022-07-29T03:07:25.640Z,66.19
2022-07-29T03:08:24.595Z,66.08
2022-07-29T03:09:24.585Z,65.99
2022-07-29T03:10:24.581Z,65.99
2022-07-29T03:11:41.442Z,65.88
2022-07-29T03:12:25.555Z,66.08
2022-07-29T03:13:24.602Z,66.32
2022-07-29T03:14:24.516Z,66.42
2022-07-29T03:15:24.752Z,66.52
2022-07-29T03:16:24.504Z,66.72
2022-07-29T03:17:24.497Z,66.82
2022-07-29T03:18:24.462Z,66.93
2022-07-29T03:19:24.456Z,67.13
2022-07-29T03:20:24.437Z,67.23
2022-07-29T03:21:24.423Z,67.43
2022-07-29T03:22:24.416Z,68.04
2022-07-29T03:23:24.390Z,69.28
2022-07-29T03:24:24.393Z,69.58
2022-07-29T03:25:24.374Z,69.89
2022-07-29T03:26:24.347Z,69.89
2022-07-29T03:27:24.365Z,69.38
2022-07-29T03:28:24.327Z,69.28
2022-07-29T03:29:24.327Z,69.48
2022-07-29T03:30:24.338Z,69.68
2022-07-29T03:31:24.352Z,69.89
2022-07-29T03:32:25.337Z,70.09
2022-07-29T03:33:24.259Z,70.32
2022-07-29T03:34:24.255Z,70.29
2022-07-29T03:35:24.240Z,70.49
2022-07-29T03:36:24.218Z,70.19
2022-07-29T03:37:24.228Z,70.12
2022-07-29T03:38:24.198Z,70.02
2022-07-29T03:39:24.180Z,70.02
2022-07-29T03:40:24.178Z,69.82
2022-07-29T03:41:24.166Z,69.82
2022-07-29T03:42:24.179Z,69.55
2022-07-29T03:43:24.131Z,69.65
2022-07-29T03:44:24.118Z,69.85
2022-07-29T03:45:24.112Z,69.85
2022-07-29T03:46:24.175Z,69.95
2022-07-29T03:47:43.434Z,69.85
2022-07-29T03:48:25.061Z,69.71
2022-07-29T03:49:24.090Z,69.71
2022-07-29T03:50:24.042Z,69.92
2022-07-29T03:51:33.344Z,69.92
2022-07-29T03:52:25.047Z,69.82
2022-07-29T03:53:24.010Z,69.71
2022-07-29T03:54:24.000Z,69.51
2022-07-29T03:55:23.978Z,69.51
2022-07-29T03:56:23.958Z,69.42
2022-07-29T03:57:23.950Z,69.62
2022-07-29T03:58:23.988Z,69.62
2022-07-29T03:59:23.933Z,69.71
2022-07-29T04:00:23.925Z,69.92
2022-07-29T04:01:23.981Z,70.22
2022-07-29T04:02:28.701Z,70.62
2022-07-29T04:03:24.988Z,71.03
2022-07-29T04:04:23.863Z,71.13
2022-07-29T04:05:23.841Z,71.23
2022-07-29T04:06:23.852Z,71.23
2022-07-29T04:07:23.874Z,71.44
2022-07-29T04:08:23.820Z,71.44
2022-07-29T04:09:23.801Z,71.53
2022-07-29T04:10:26.895Z,71.77
2022-07-29T04:11:24.782Z,71.77
2022-07-29T04:12:23.751Z,71.87
2022-07-29T04:13:23.761Z,71.87
2022-07-29T04:14:23.733Z,71.77
2022-07-29T04:15:23.723Z,71.77
2022-07-29T04:16:23.757Z,71.47
2022-07-29T04:17:23.693Z,71.67
2022-07-29T04:18:23.702Z,71.77
2022-07-29T04:19:23.690Z,72.08
2022-07-29T04:20:23.661Z,72.17
2022-07-29T04:21:23.663Z,72.17
2022-07-29T04:22:23.631Z,72.28
2022-07-29T04:23:23.632Z,72.38
2022-07-29T04:24:23.593Z,72.38
2022-07-29T04:25:23.583Z,72.48
2022-07-29T04:26:23.573Z,72.58
2022-07-29T04:27:23.575Z,72.78
2022-07-29T04:28:23.564Z,72.78
2022-07-29T04:29:23.535Z,72.88
2022-07-29T04:30:23.543Z,72.99
2022-07-29T04:31:25.891Z,73.02
2022-07-29T04:32:23.483Z,73.02
2022-07-29T04:33:25.042Z,73.02
2022-07-29T04:34:23.465Z,73.22
2022-07-29T04:35:23.466Z,73.02
2022-07-29T04:36:29.502Z,73.12
2022-07-29T04:37:24.646Z,73.22
2022-07-29T04:38:23.454Z,73.22
2022-07-29T04:39:23.452Z,73.12
2022-07-29T04:40:23.384Z,73.12
2022-07-29T04:41:23.384Z,72.72
2022-07-29T04:42:27.407Z,72.51
2022-07-29T04:43:23.523Z,72.31
2022-07-29T04:44:28.471Z,72.41
2022-07-29T04:45:24.333Z,72.92
2022-07-29T04:46:23.353Z,73.12
2022-07-29T04:47:23.294Z,73.32
2022-07-29T04:48:28.508Z,73.19
2022-07-29T04:49:24.356Z,73.28
2022-07-29T04:50:23.245Z,73.19
2022-07-29T04:51:23.244Z,73.28
2022-07-29T04:52:23.253Z,73.59
2022-07-29T04:53:23.222Z,73.49
2022-07-29T04:54:23.223Z,73.28
2022-07-29T04:55:23.186Z,73.08
2022-07-29T04:56:23.178Z,72.88
2022-07-29T04:57:23.169Z,72.78
2022-07-29T04:58:23.157Z,72.58
2022-07-29T04:59:23.187Z,72.68
2022-07-29T05:00:23.127Z,72.64
2022-07-29T05:01:24.241Z,72.75
2022-07-29T05:02:23.134Z,73.15
2022-07-29T05:03:23.076Z,71.87
2022-07-29T05:04:23.105Z,70.73
2022-07-29T05:05:23.096Z,69.55
2022-07-29T05:06:23.046Z,68.61
2022-07-29T05:07:23.035Z,67.57
2022-07-29T05:08:23.008Z,66.67
2022-07-29T05:09:24.494Z,66.67
2022-07-29T05:10:23.502Z,66.43
2022-07-29T05:11:27.233Z,66.43
2022-07-29T05:12:23.982Z,66.33
2022-07-29T05:13:22.959Z,65.93
2022-07-29T05:14:22.947Z,65.73
2022-07-29T05:15:23.045Z,65.02
2022-07-29T05:16:22.950Z,66.23
2022-07-29T05:17:22.899Z,66.63
2022-07-29T05:18:25.917Z,66.30
2022-07-29T05:19:22.920Z,65.80
2022-07-29T05:20:22.858Z,65.36
2022-07-29T05:21:22.849Z,64.96
2022-07-29T05:22:22.829Z,64.53
2022-07-29T05:23:22.820Z,64.33
2022-07-29T05:24:22.830Z,63.82
2022-07-29T05:25:22.791Z,64.03
2022-07-29T05:26:22.799Z,64.33
2022-07-29T05:27:22.779Z,64.23
2022-07-29T05:28:22.809Z,64.23
2022-07-29T05:29:42.703Z,64.43
2022-07-29T05:30:23.818Z,64.23
2022-07-29T05:31:22.837Z,64.03
2022-07-29T05:32:22.693Z,63.79
2022-07-29T05:33:35.248Z,63.70
2022-07-29T05:34:23.693Z,63.49
2022-07-29T05:35:22.650Z,63.29
2022-07-29T05:36:22.662Z,63.29
2022-07-29T05:37:22.629Z,63.19
2022-07-29T05:38:22.631Z,63.19
2022-07-29T05:39:22.622Z,63.19
2022-07-29T05:40:23.578Z,62.39
2022-07-29T05:41:22.593Z,63.29
2022-07-29T05:42:23.611Z,62.99
2022-07-29T05:43:22.695Z,62.79
2022-07-29T05:44:25.368Z,62.59
2022-07-29T05:45:22.522Z,62.89
2022-07-29T05:46:22.536Z,62.99
2022-07-29T05:47:22.491Z,62.86
2022-07-29T05:48:22.485Z,62.56
2022-07-29T05:49:24.229Z,62.26
2022-07-29T05:50:23.813Z,62.03
2022-07-29T05:51:22.451Z,61.72
2022-07-29T05:52:22.433Z,61.43
2022-07-29T05:53:22.633Z,61.13
2022-07-29T05:54:22.403Z,61.00
2022-07-29T05:55:22.392Z,60.80
2022-07-29T05:56:22.371Z,60.80
2022-07-29T05:57:22.744Z,60.69
2022-07-29T05:58:22.342Z,60.80
2022-07-29T05:59:24.106Z,60.60
2022-07-29T06:00:22.324Z,60.60
2022-07-29T06:01:22.352Z,60.39
2022-07-29T06:02:22.290Z,60.39
2022-07-29T06:03:22.374Z,59.99
2022-07-29T06:04:22.337Z,59.99
2022-07-29T06:05:22.263Z,59.19
2022-07-29T06:06:22.244Z,59.99
2022-07-29T06:07:22.232Z,59.79
2022-07-29T06:08:22.204Z,59.99
2022-07-29T06:09:22.223Z,59.89
2022-07-29T06:10:26.176Z,59.99
2022-07-29T06:11:23.175Z,59.79
2022-07-29T06:12:22.159Z,59.46
2022-07-29T06:13:22.152Z,59.06
2022-07-29T06:14:22.145Z,56.58
2022-07-29T06:15:22.114Z,58.79
2022-07-29T06:16:28.910Z,58.69
2022-07-29T06:17:23.085Z,58.49
2022-07-29T06:18:22.083Z,58.59
2022-07-29T06:19:22.085Z,58.49
2022-07-29T06:20:26.867Z,57.48
2022-07-29T06:21:23.048Z,58.69
2022-07-29T06:22:22.016Z,57.89
2022-07-29T06:23:22.094Z,58.49
2022-07-29T06:24:22.068Z,58.89
2022-07-29T06:25:22.001Z,58.59
2022-07-29T06:26:30.741Z,59.19
2022-07-29T06:27:22.957Z,59.19
2022-07-29T06:28:21.945Z,59.19
2022-07-29T06:29:21.947Z,58.39
2022-07-29T06:30:22.167Z,58.59
2022-07-29T06:31:21.953Z,58.79
2022-07-29T06:32:22.901Z,58.69
2022-07-29T06:33:22.883Z,58.59
2022-07-29T06:34:21.877Z,58.46
2022-07-29T06:35:38.611Z,58.26
2022-07-29T06:36:22.927Z,58.16
2022-07-29T06:37:21.826Z,58.13
2022-07-29T06:38:33.833Z,57.83
2022-07-29T06:39:22.861Z,57.53
2022-07-29T06:40:21.789Z,57.43
2022-07-29T06:41:21.765Z,57.03
2022-07-29T06:42:21.758Z,56.20
2022-07-29T06:43:21.747Z,56.80
2022-07-29T06:44:21.740Z,57.00
2022-07-29T06:45:21.709Z,56.50
2022-07-29T06:46:28.890Z,56.00
2022-07-29T06:47:21.673Z,54.80
2022-07-29T06:48:21.683Z,54.70
2022-07-29T06:49:21.714Z,54.90
2022-07-29T06:50:21.652Z,55.22
2022-07-29T06:51:22.575Z,55.52
2022-07-29T06:52:21.620Z,55.63
2022-07-29T06:53:21.614Z,55.43
2022-07-29T06:54:21.622Z,55.15
2022-07-29T06:55:25.352Z,54.95
2022-07-29T06:56:21.574Z,54.95
2022-07-29T06:57:21.544Z,55.15
2022-07-29T06:58:21.545Z,55.45
2022-07-29T06:59:28.342Z,55.25
2022-07-29T07:00:22.523Z,55.15
2022-07-29T07:01:21.579Z,55.45
2022-07-29T07:02:21.555Z,55.78
2022-07-29T07:03:21.465Z,56.08
2022-07-29T07:04:21.680Z,56.28
2022-07-29T07:05:21.442Z,56.48
2022-07-29T07:06:21.434Z,56.58
2022-07-29T07:07:21.404Z,55.88
2022-07-29T07:08:21.415Z,55.98
2022-07-29T07:09:21.404Z,55.88
2022-07-29T07:10:21.376Z,56.58
2022-07-29T07:11:21.362Z,56.78
2022-07-29T07:12:21.364Z,56.98
2022-07-29T07:13:21.335Z,57.39
2022-07-29T07:14:21.656Z,57.28
2022-07-29T07:15:21.305Z,57.68
2022-07-29T07:16:21.351Z,57.59
2022-07-29T07:17:21.293Z,57.35
2022-07-29T07:18:21.273Z,57.26
2022-07-29T07:19:21.304Z,57.06
2022-07-29T07:20:21.266Z,56.85
2022-07-29T07:21:21.256Z,56.85
2022-07-29T07:22:21.224Z,57.66
2022-07-29T07:23:21.196Z,57.26
2022-07-29T07:24:21.217Z,56.96
2022-07-29T07:25:21.204Z,57.56
2022-07-29T07:26:21.168Z,57.13
2022-07-29T07:27:21.147Z,55.52
2022-07-29T07:28:24.518Z,56.43
2022-07-29T07:29:21.116Z,55.73
2022-07-29T07:30:21.157Z,55.82
2022-07-29T07:31:21.210Z,55.93
2022-07-29T07:32:21.122Z,56.23
2022-07-29T07:33:21.125Z,57.03
2022-07-29T07:34:28.278Z,56.43
2022-07-29T07:35:22.068Z,56.50
2022-07-29T07:36:21.037Z,56.60
2022-07-29T07:37:21.021Z,56.00
2022-07-29T07:38:21.080Z,55.60
2022-07-29T07:39:20.988Z,55.70
2022-07-29T07:40:20.996Z,55.90
2022-07-29T07:41:20.969Z,55.70
2022-07-29T07:42:20.949Z,55.90
2022-07-29T07:43:20.946Z,56.50
2022-07-29T07:44:21.249Z,55.90
2022-07-29T07:45:20.929Z,55.40
2022-07-29T07:46:20.995Z,56.10
2022-07-29T07:47:20.889Z,56.00
2022-07-29T07:48:20.920Z,56.20
2022-07-29T07:49:20.924Z,55.87
2022-07-29T07:50:20.869Z,56.17
2022-07-29T07:51:20.821Z,56.67
2022-07-29T07:52:20.850Z,56.37
2022-07-29T07:53:20.810Z,56.07
2022-07-29T07:54:21.113Z,56.17
2022-07-29T07:55:20.800Z,56.98
2022-07-29T07:56:20.781Z,56.17
2022-07-29T07:57:20.752Z,55.47
2022-07-29T07:58:20.741Z,54.44
2022-07-29T07:59:20.729Z,54.05
2022-07-29T08:00:23.078Z,55.15
2022-07-29T08:01:20.744Z,55.35
2022-07-29T08:02:20.857Z,53.85
2022-07-29T08:03:20.670Z,53.94
2022-07-29T08:04:26.566Z,54.35
2022-07-29T08:05:21.683Z,53.24
2022-07-29T08:06:20.654Z,53.44
2022-07-29T08:07:20.613Z,55.55
2022-07-29T08:08:20.614Z,55.65
2022-07-29T08:09:29.298Z,55.74
2022-07-29T08:10:21.602Z,55.82
2022-07-29T08:11:20.570Z,56.02
2022-07-29T08:12:20.562Z,55.82
2022-07-29T08:13:20.535Z,54.72
2022-07-29T08:14:20.531Z,54.92
2022-07-29T08:15:20.531Z,55.12
2022-07-29T08:16:20.619Z,55.22
2022-07-29T08:17:20.491Z,54.92
2022-07-29T08:18:20.485Z,54.82
2022-07-29T08:19:20.457Z,55.22
2022-07-29T08:20:20.576Z,54.72
2022-07-29T08:21:20.508Z,54.62
2022-07-29T08:22:20.411Z,54.82
2022-07-29T08:23:20.405Z,54.62
2022-07-29T08:24:20.394Z,54.52
2022-07-29T08:25:20.445Z,54.92
2022-07-29T08:26:20.367Z,55.69
2022-07-29T08:27:41.907Z,55.40
2022-07-29T08:28:21.343Z,54.29
2022-07-29T08:29:20.334Z,53.69
2022-07-29T08:30:20.374Z,53.99
2022-07-29T08:31:20.358Z,53.59
2022-07-29T08:32:43.478Z,54.99
2022-07-29T08:33:21.285Z,55.09
2022-07-29T08:34:21.565Z,55.49
2022-07-29T08:35:21.258Z,56.09
2022-07-29T08:36:20.244Z,55.89
2022-07-29T08:37:20.234Z,54.69
2022-07-29T08:38:20.225Z,54.60
2022-07-29T08:39:20.196Z,54.99
2022-07-29T08:40:20.300Z,55.59
2022-07-29T08:41:21.168Z,55.19
2022-07-29T08:42:20.157Z,54.99
2022-07-29T08:43:20.146Z,55.29
2022-07-29T08:44:22.442Z,55.69
2022-07-29T08:45:21.139Z,55.69
2022-07-29T08:46:20.125Z,55.49
2022-07-29T08:47:20.086Z,54.60
2022-07-29T08:48:20.081Z,53.27
2022-07-29T08:49:20.125Z,53.27
2022-07-29T08:50:20.047Z,52.87
2022-07-29T08:51:20.061Z,52.97
2022-07-29T08:52:20.028Z,52.87
2022-07-29T08:53:20.006Z,53.67
2022-07-29T08:54:20.006Z,54.37
2022-07-29T08:55:21.490Z,54.47
2022-07-29T08:56:20.015Z,53.27
2022-07-29T08:57:19.960Z,53.27
2022-07-29T08:58:22.961Z,52.37
2022-07-29T08:59:19.954Z,53.47
2022-07-29T09:00:20.034Z,54.97
2022-07-29T09:01:19.949Z,55.27
2022-07-29T09:02:19.899Z,55.07
2022-07-29T09:03:19.960Z,54.57
2022-07-29T09:04:19.879Z,53.97
2022-07-29T09:05:19.841Z,54.57
2022-07-29T09:06:19.859Z,54.57
2022-07-29T09:07:19.843Z,54.24
2022-07-29T09:08:19.821Z,54.14
2022-07-29T09:09:19.799Z,53.64
2022-07-29T09:10:19.814Z,53.24
2022-07-29T09:11:19.791Z,53.64
2022-07-29T09:12:28.766Z,53.54
2022-07-29T09:13:20.750Z,53.22
2022-07-29T09:14:19.741Z,54.32
2022-07-29T09:15:19.740Z,54.02
2022-07-29T09:16:43.889Z,52.92
2022-07-29T09:17:20.790Z,53.12
2022-07-29T09:18:30.513Z,52.00
2022-07-29T09:19:20.664Z,51.20
2022-07-29T09:20:19.673Z,51.29
2022-07-29T09:21:19.734Z,52.39
2022-07-29T09:22:19.632Z,51.59
2022-07-29T09:23:22.867Z,51.70
2022-07-29T09:24:19.603Z,53.09
2022-07-29T09:25:19.584Z,52.79
2022-07-29T09:26:19.653Z,52.59
2022-07-29T09:27:19.576Z,52.19
2022-07-29T09:28:19.835Z,52.69
2022-07-29T09:29:19.535Z,52.49
2022-07-29T09:30:28.876Z,52.49
2022-07-29T09:31:20.623Z,53.29
2022-07-29T09:32:19.495Z,52.59
2022-07-29T09:33:19.485Z,52.09
2022-07-29T09:34:19.462Z,52.09
2022-07-29T09:35:19.579Z,51.70
2022-07-29T09:36:19.453Z,51.67
2022-07-29T09:37:19.428Z,52.97
2022-07-29T09:38:19.415Z,51.77
2022-07-29T09:39:19.465Z,50.77
2022-07-29T09:40:19.394Z,51.87
2022-07-29T09:41:19.383Z,52.37
2022-07-29T09:42:19.364Z,53.06
2022-07-29T09:43:19.345Z,52.57
2022-07-29T09:44:19.361Z,52.37
2022-07-29T09:45:19.314Z,52.25
2022-07-29T09:46:19.356Z,52.04
2022-07-29T09:47:19.294Z,51.75
2022-07-29T09:48:19.294Z,50.55
2022-07-29T09:49:19.361Z,50.62
2022-07-29T09:50:20.649Z,51.42
2022-07-29T09:51:21.331Z,51.92
2022-07-29T09:52:19.243Z,52.22
2022-07-29T09:53:19.217Z,51.92
2022-07-29T09:54:19.208Z,50.30
2022-07-29T09:55:19.963Z,49.90
2022-07-29T09:56:19.209Z,49.70
2022-07-29T09:57:19.169Z,49.90
2022-07-29T09:58:19.159Z,50.73
2022-07-29T09:59:19.137Z,50.92
2022-07-29T10:00:19.140Z,51.42
2022-07-29T10:01:19.172Z,52.62
2022-07-29T10:02:23.795Z,52.09
2022-07-29T10:03:20.234Z,52.59
2022-07-29T10:04:19.081Z,51.89
2022-07-29T10:05:19.057Z,52.49
2022-07-29T10:06:19.094Z,51.20
2022-07-29T10:07:19.010Z,51.77
2022-07-29T10:08:19.020Z,51.17
2022-07-29T10:09:19.011Z,51.27
2022-07-29T10:10:19.002Z,50.18
2022-07-29T10:11:18.991Z,51.07
2022-07-29T10:12:18.974Z,50.85
2022-07-29T10:13:18.951Z,49.06
2022-07-29T10:14:18.938Z,49.26
2022-07-29T10:15:18.951Z,48.86
2022-07-29T10:16:19.121Z,48.46
2022-07-29T10:17:18.901Z,48.56
2022-07-29T10:18:18.889Z,48.76
2022-07-29T10:19:18.864Z,48.36
2022-07-29T10:20:18.860Z,48.66
2022-07-29T10:21:34.973Z,48.66
2022-07-29T10:22:43.561Z,48.66
2022-07-29T10:23:19.826Z,48.88
2022-07-29T10:24:18.811Z,49.18
2022-07-29T10:25:18.793Z,51.57
2022-07-29T10:26:18.806Z,51.47
2022-07-29T10:27:18.852Z,51.05
2022-07-29T10:28:18.766Z,50.95
2022-07-29T10:29:18.722Z,50.75
2022-07-29T10:30:18.749Z,50.65
2022-07-29T10:31:18.810Z,51.25
2022-07-29T10:32:18.713Z,51.54
2022-07-29T10:33:18.698Z,50.73
2022-07-29T10:34:18.701Z,50.63
2022-07-29T10:35:18.677Z,50.93
2022-07-29T10:36:18.693Z,50.43
2022-07-29T10:37:18.707Z,48.44
2022-07-29T10:38:18.651Z,48.94
2022-07-29T10:39:18.655Z,50.03
2022-07-29T10:40:18.596Z,49.51
2022-07-29T10:41:19.677Z,50.01
2022-07-29T10:42:19.901Z,49.13
2022-07-29T10:43:18.568Z,50.52
2022-07-29T10:44:19.393Z,49.63
2022-07-29T10:45:18.526Z,48.71
2022-07-29T10:46:18.601Z,49.51
2022-07-29T10:47:18.552Z,50.01
2022-07-29T10:48:19.215Z,50.40
2022-07-29T10:49:18.541Z,50.70
2022-07-29T10:50:18.527Z,49.78
2022-07-29T10:51:18.466Z,49.98
2022-07-29T10:52:18.447Z,50.78
2022-07-29T10:53:18.418Z,51.47
2022-07-29T10:54:18.411Z,50.98
2022-07-29T10:55:18.409Z,49.98
2022-07-29T10:56:18.379Z,49.68
2022-07-29T10:57:18.401Z,49.38
2022-07-29T10:58:19.023Z,48.79
2022-07-29T10:59:18.351Z,49.88
2022-07-29T11:00:18.348Z,50.48
2022-07-29T11:01:18.329Z,50.88
2022-07-29T11:02:41.474Z,50.98
2022-07-29T11:03:19.334Z,50.88
2022-07-29T11:04:18.312Z,51.17
2022-07-29T11:05:18.271Z,50.88
2022-07-29T11:06:26.364Z,50.98
2022-07-29T11:07:19.251Z,50.08
2022-07-29T11:08:19.523Z,50.75
2022-07-29T11:09:18.210Z,50.35
2022-07-29T11:10:18.200Z,50.56
2022-07-29T11:11:18.221Z,49.36
2022-07-29T11:12:18.190Z,48.86
2022-07-29T11:13:18.162Z,49.66
2022-07-29T11:14:18.149Z,50.38
2022-07-29T11:15:18.151Z,50.05
2022-07-29T11:16:18.121Z,50.45
2022-07-29T11:17:18.150Z,50.85
2022-07-29T11:18:18.109Z,49.16
2022-07-29T11:19:21.525Z,49.96
2022-07-29T11:20:19.073Z,50.26
2022-07-29T11:21:18.062Z,49.74
2022-07-29T11:22:19.053Z,49.74
2022-07-29T11:23:19.032Z,49.24
2022-07-29T11:24:18.588Z,48.82
2022-07-29T11:25:19.016Z,48.52
2022-07-29T11:26:19.128Z,49.41
2022-07-29T11:27:19.816Z,49.51
2022-07-29T11:29:18.954Z,47.80
2022-07-29T11:30:17.933Z,46.42
2022-07-29T11:31:17.935Z,46.51
2022-07-29T11:32:18.420Z,48.80
2022-07-29T11:33:18.902Z,49.49
2022-07-29T11:34:18.886Z,47.61
2022-07-29T11:35:18.891Z,48.80
2022-07-29T11:36:17.966Z,47.78
2022-07-29T11:37:18.023Z,46.30
2022-07-29T11:38:17.855Z,47.58
2022-07-29T11:39:17.857Z,47.68
2022-07-29T11:40:18.279Z,47.86
2022-07-29T11:41:17.806Z,47.06
2022-07-29T11:42:17.786Z,47.06
2022-07-29T11:43:18.786Z,44.98
2022-07-29T11:44:17.991Z,46.07
2022-07-29T11:45:42.197Z,46.37
2022-07-29T11:46:18.736Z,46.09
2022-07-29T11:47:18.777Z,46.00
2022-07-29T11:48:30.009Z,45.50
2022-07-29T11:49:18.748Z,46.17
2022-07-29T11:50:17.695Z,46.67
2022-07-29T11:51:17.717Z,46.69
2022-07-29T11:52:17.658Z,47.19
2022-07-29T11:53:17.681Z,46.97
2022-07-29T11:54:17.627Z,46.77
2022-07-29T11:55:17.618Z,45.87
2022-07-29T11:56:17.607Z,46.37
2022-07-29T11:57:17.589Z,46.25
2022-07-29T11:58:17.599Z,46.74
2022-07-29T11:59:17.570Z,47.04
2022-07-29T12:00:18.673Z,46.64
2022-07-29T12:01:17.549Z,45.16
2022-07-29T12:02:37.389Z,44.07
2022-07-29T12:03:18.557Z,44.67
2022-07-29T12:04:17.506Z,46.55
2022-07-29T12:05:35.825Z,46.55
2022-07-29T12:06:20.967Z,46.45
2022-07-29T12:07:17.481Z,46.62
2022-07-29T12:08:17.480Z,46.62
2022-07-29T12:09:17.441Z,47.09
2022-07-29T12:10:20.201Z,46.30
2022-07-29T12:11:20.863Z,46.20
2022-07-29T12:12:17.409Z,46.01
2022-07-29T12:13:17.431Z,45.51
2022-07-29T12:14:17.371Z,45.01
2022-07-29T12:15:17.383Z,45.41
2022-07-29T12:16:29.395Z,46.18
2022-07-29T12:17:18.361Z,45.39
2022-07-29T12:18:18.428Z,45.29
2022-07-29T12:19:17.328Z,45.98
2022-07-29T12:20:17.300Z,44.38
2022-07-29T12:21:17.292Z,44.58
2022-07-29T12:22:17.367Z,45.07
2022-07-29T12:23:17.378Z,45.27
2022-07-29T12:24:17.245Z,45.27
2022-07-29T12:25:32.299Z,45.15
2022-07-29T12:26:25.638Z,44.95
2022-07-29T12:27:18.222Z,44.65
2022-07-29T12:28:18.598Z,45.15
2022-07-29T12:29:20.319Z,45.54
2022-07-29T12:30:18.245Z,45.74
2022-07-29T12:31:41.876Z,46.53
2022-07-29T12:32:19.661Z,45.74
2022-07-29T12:33:17.162Z,45.05
2022-07-29T12:34:17.132Z,45.47
2022-07-29T12:35:17.137Z,45.57
2022-07-29T12:36:17.881Z,45.27
2022-07-29T12:37:17.105Z,45.27
2022-07-29T12:38:17.068Z,45.47
2022-07-29T12:39:17.069Z,45.47
2022-07-29T12:40:17.049Z,46.36
2022-07-29T12:41:17.035Z,45.67
2022-07-29T12:42:18.518Z,45.96
2022-07-29T12:43:16.999Z,46.06
2022-07-29T12:44:17.033Z,46.45
2022-07-29T12:45:16.978Z,46.45
2022-07-29T12:46:16.985Z,46.44
2022-07-29T12:47:16.960Z,45.35
2022-07-29T12:48:16.928Z,45.64
2022-07-29T12:49:26.255Z,45.37
2022-07-29T12:50:16.871Z,45.17
2022-07-29T12:51:16.879Z,45.15
2022-07-29T12:52:16.842Z,45.74
2022-07-29T12:53:17.754Z,44.85